Time;durP1;ratioP1;P1;durP2;ratioP2;P2;SDS_P1;SDS_P2;PMS_P1;PMS_P2;Temp;Humidity;BMP_temperature;BMP_pressure;BME280_temperature;BME280_humidity;BME280_pressure;Samples;Min_cycle;Max_cycle;Signal;HPM_P1;HPM_P2
2022/09/26 00:02:21;;;;;;;4.40;3.17;;;9.00;99.90;;;;;;4937194;29;20192;-74
2022/09/26 00:04:47;;;;;;;5.43;3.42;;;9.00;99.90;;;;;;4936937;29;20750;-74
2022/09/26 00:07:13;;;;;;;4.90;3.00;;;9.10;99.90;;;;;;4936768;29;20216;-74
2022/09/26 00:09:38;;;;;;;7.90;3.40;;;9.00;99.90;;;;;;4936929;29;20245;-74
2022/09/26 00:12:04;;;;;;;5.93;3.27;;;9.00;99.90;;;;;;4936750;29;20292;-75
2022/09/26 00:14:30;;;;;;;6.47;3.30;;;9.00;99.90;;;;;;4936472;29;20170;-74
2022/09/26 00:16:55;;;;;;;7.13;3.57;;;9.10;99.90;;;;;;4935543;29;20444;-73
2022/09/26 00:19:21;;;;;;;4.87;3.50;;;9.00;99.90;;;;;;4936521;29;20185;-74
2022/09/26 00:21:47;;;;;;;5.15;3.42;;;9.00;99.90;;;;;;4937011;29;20189;-73
2022/09/26 00:24:13;;;;;;;5.63;3.60;;;9.10;99.90;;;;;;4936247;29;20188;-74
2022/09/26 00:26:38;;;;;;;6.17;3.63;;;9.10;99.90;;;;;;4936605;29;20216;-74
2022/09/26 00:29:10;;;;;;;5.77;4.30;;;9.10;99.90;;;;;;4936839;29;20182;-73
2022/09/26 00:31:40;;;;;;;4.65;3.65;;;9.20;99.90;;;;;;4936774;29;20228;-74
2022/09/26 00:34:06;;;;;;;5.68;3.85;;;9.20;99.90;;;;;;4936272;29;20224;-74
2022/09/26 00:36:32;;;;;;;9.60;3.58;;;9.20;99.90;;;;;;4936642;29;20196;-73
2022/09/26 00:38:59;;;;;;;5.17;3.83;;;9.30;99.90;;;;;;4936631;29;20185;-73
2022/09/26 00:41:25;;;;;;;6.18;3.70;;;9.30;99.90;;;;;;4936275;29;20268;-74
2022/09/26 00:43:56;;;;;;;4.83;3.00;;;9.30;99.90;;;;;;4934884;29;20651;-73
2022/09/26 00:46:36;;;;;;;5.10;3.35;;;9.30;99.90;;;;;;4936156;29;20198;-73
2022/09/26 00:49:22;;;;;;;6.50;3.63;;;9.30;99.90;;;;;;4936257;29;20741;-74
2022/09/26 00:52:12;;;;;;;4.43;3.08;;;9.20;99.90;;;;;;4936233;29;20213;-73
2022/09/26 00:54:44;;;;;;;10.45;4.20;;;9.20;99.90;;;;;;4935898;29;20706;-73
2022/09/26 00:57:14;;;;;;;6.25;3.05;;;9.10;99.90;;;;;;4936202;29;20677;-73
2022/09/26 00:59:47;;;;;;;7.57;3.67;;;9.20;99.90;;;;;;4936071;29;20216;-73
2022/09/26 01:02:14;;;;;;;4.70;3.00;;;9.20;99.90;;;;;;4936030;29;20170;-73
2022/09/26 01:04:43;;;;;;;6.75;3.80;;;9.20;99.90;;;;;;4935899;29;20196;-74
2022/09/26 01:07:16;;;;;;;6.10;3.22;;;9.20;99.90;;;;;;4936072;29;20205;-74
2022/09/26 01:09:42;;;;;;;4.28;3.10;;;9.30;99.90;;;;;;4936564;29;20192;-73
2022/09/26 01:12:09;;;;;;;3.53;2.70;;;9.30;99.90;;;;;;4936145;29;20209;-74
2022/09/26 01:14:36;;;;;;;6.28;2.67;;;9.30;99.90;;;;;;4935725;29;20260;-73
2022/09/26 01:17:03;;;;;;;4.68;3.00;;;9.40;99.90;;;;;;4936069;29;20258;-74
2022/09/26 01:19:46;;;;;;;3.75;3.20;;;9.30;99.90;;;;;;4936008;29;20170;-74
2022/09/26 01:22:36;;;;;;;5.03;2.92;;;9.40;99.90;;;;;;4935880;29;20672;-74
2022/09/26 01:25:04;;;;;;;5.38;3.08;;;9.40;99.90;;;;;;4935487;29;20181;-73
2022/09/26 01:27:58;;;;;;;5.13;3.25;;;9.40;99.90;;;;;;4935837;29;20650;-73
2022/09/26 01:30:27;;;;;;;6.47;2.88;;;9.40;99.90;;;;;;4920130;29;20264;-74
2022/09/26 01:33:14;;;;;;;5.30;3.58;;;9.40;99.90;;;;;;4939762;29;20180;-73
2022/09/26 01:36:04;;;;;;;6.22;3.25;;;9.40;99.90;;;;;;4939420;29;20260;-73
2022/09/26 01:38:59;;;;;;;4.65;2.58;;;9.40;99.90;;;;;;4939724;29;20611;-73
2022/09/26 01:41:46;;;;;;;3.80;3.25;;;9.40;99.90;;;;;;4939685;29;20209;-74
2022/09/26 01:44:36;;;;;;;5.88;3.28;;;9.40;99.90;;;;;;4939069;29;20173;-73
2022/09/26 01:47:12;;;;;;;4.57;2.92;;;9.40;99.90;;;;;;4939516;29;20256;-74
2022/09/26 01:49:49;;;;;;;8.90;3.05;;;9.50;99.90;;;;;;4938126;29;20665;-74
2022/09/26 01:52:36;;;;;;;6.72;3.20;;;9.40;99.90;;;;;;4939353;29;20617;-74
2022/09/26 01:55:17;;;;;;;4.50;3.25;;;9.50;99.90;;;;;;4939109;29;20177;-74
2022/09/26 01:57:55;;;;;;;3.67;3.03;;;9.50;99.90;;;;;;4939330;29;20247;-74
2022/09/26 02:00:21;;;;;;;5.68;3.67;;;9.60;99.90;;;;;;4939151;29;20185;-74
2022/09/26 02:02:48;;;;;;;7.13;2.90;;;9.70;99.90;;;;;;4939093;29;20555;-73
2022/09/26 02:05:36;;;;;;;3.40;3.00;;;9.70;99.90;;;;;;4938902;29;20425;-73
2022/09/26 02:08:11;;;;;;;10.60;3.70;;;9.70;99.90;;;;;;4939080;29;20216;-74
2022/09/26 02:10:47;;;;;;;3.88;3.17;;;9.70;99.90;;;;;;4938958;29;20409;-74
2022/09/26 02:13:19;;;;;;;4.78;3.15;;;9.70;99.90;;;;;;4939185;29;20210;-73
2022/09/26 02:15:48;;;;;;;5.07;3.50;;;9.80;99.90;;;;;;4938694;29;20169;-74
2022/09/26 02:18:19;;;;;;;4.60;3.42;;;9.60;99.90;;;;;;4939057;29;20178;-74
2022/09/26 02:20:54;;;;;;;3.53;3.22;;;9.60;99.90;;;;;;4938773;29;20178;-75
2022/09/26 02:23:20;;;;;;;5.45;4.15;;;9.50;99.90;;;;;;4938980;29;20509;-73
2022/09/26 02:25:46;;;;;;;3.35;3.00;;;9.50;99.90;;;;;;4938529;29;20261;-74
2022/09/26 02:28:13;;;;;;;3.90;3.50;;;9.50;99.90;;;;;;4939025;29;20185;-73
2022/09/26 02:30:40;;;;;;;5.57;3.78;;;9.40;99.90;;;;;;4938850;29;20229;-74
2022/09/26 02:33:06;;;;;;;5.78;3.72;;;9.40;99.90;;;;;;4938729;29;20617;-73
2022/09/26 02:38:16;;;;;;;7.30;3.53;;;9.40;99.90;;;;;;4939016;29;20424;-73
2022/09/26 02:41:06;;;;;;;4.87;4.40;;;9.30;99.90;;;;;;4937290;29;20194;-73
2022/09/26 02:43:44;;;;;;;6.57;3.50;;;9.30;99.90;;;;;;4937996;29;20189;-73
2022/09/26 02:46:42;;;;;;;5.53;4.32;;;9.30;99.90;;;;;;4938195;29;20189;-73
2022/09/26 02:49:29;;;;;;;9.77;4.05;;;9.30;99.90;;;;;;4938217;29;20257;-74
2022/09/26 02:52:26;;;;;;;9.43;3.88;;;9.30;99.90;;;;;;4938468;29;20210;-74
2022/09/26 02:55:13;;;;;;;4.15;3.60;;;9.30;99.90;;;;;;4903057;29;20225;-73
2022/09/26 02:57:55;;;;;;;4.75;3.42;;;9.40;99.90;;;;;;4938283;29;20197;-74
2022/09/26 03:00:29;;;;;;;5.70;3.30;;;9.40;99.90;;;;;;4938217;29;20205;-73
2022/09/26 03:03:18;;;;;;;4.70;3.72;;;9.40;99.90;;;;;;4938099;29;20185;-73
2022/09/26 03:05:47;;;;;;;3.63;3.33;;;9.50;99.90;;;;;;4937903;29;20538;-73
2022/09/26 03:08:17;;;;;;;4.75;4.22;;;9.50;99.90;;;;;;4938053;29;20185;-73
2022/09/26 03:10:45;;;;;;;7.63;4.07;;;9.60;99.90;;;;;;4937778;29;20185;-73
2022/09/26 03:13:13;;;;;;;7.20;3.88;;;9.50;99.90;;;;;;4937961;29;20410;-73
2022/09/26 03:15:44;;;;;;;3.58;3.20;;;9.50;99.90;;;;;;4937691;29;20173;-74
2022/09/26 03:18:15;;;;;;;4.22;3.80;;;9.60;99.90;;;;;;4921132;29;20173;-74
2022/09/26 03:20:40;;;;;;;3.58;3.28;;;9.50;99.90;;;;;;4938205;29;20184;-73
2022/09/26 03:23:06;;;;;;;5.63;3.67;;;9.60;99.90;;;;;;4937896;29;20639;-74
2022/09/26 03:25:32;;;;;;;5.93;3.93;;;9.60;99.90;;;;;;4937240;29;20178;-73
2022/09/26 03:28:01;;;;;;;6.00;3.70;;;9.80;99.90;;;;;;4938059;29;20547;-73
2022/09/26 03:30:28;;;;;;;5.17;3.80;;;9.80;99.90;;;;;;4938275;29;20413;-73
2022/09/26 03:32:54;;;;;;;5.35;3.40;;;9.90;99.90;;;;;;4937747;29;20430;-74
2022/09/26 03:35:20;;;;;;;4.87;3.43;;;9.90;99.90;;;;;;4937119;29;20186;-73
2022/09/26 03:37:47;;;;;;;5.13;4.30;;;10.00;99.90;;;;;;4937593;29;20457;-73
2022/09/26 03:40:12;;;;;;;4.78;3.72;;;10.00;99.90;;;;;;4920723;29;20410;-73
2022/09/26 03:42:39;;;;;;;5.40;3.90;;;10.10;99.90;;;;;;4937730;29;20192;-73
2022/09/26 03:45:09;;;;;;;7.32;4.68;;;10.10;99.90;;;;;;4937230;29;20410;-74
2022/09/26 03:47:37;;;;;;;7.90;4.80;;;10.00;99.90;;;;;;4937370;29;20264;-74
2022/09/26 03:50:04;;;;;;;6.13;5.13;;;10.00;99.90;;;;;;4937383;29;20496;-74
2022/09/26 03:52:29;;;;;;;7.57;4.93;;;10.00;99.90;;;;;;4920603;29;20473;-74
2022/09/26 03:54:55;;;;;;;6.83;5.20;;;10.10;99.90;;;;;;4936039;29;20425;-73
2022/09/26 03:57:21;;;;;;;6.43;4.60;;;10.00;99.90;;;;;;4936723;29;20206;-74
2022/09/26 03:59:47;;;;;;;8.70;5.03;;;10.00;99.90;;;;;;4937103;29;20186;-74
2022/09/26 04:02:12;;;;;;;6.27;5.47;;;10.00;99.90;;;;;;4937071;29;20185;-74
2022/09/26 04:04:38;;;;;;;5.77;5.13;;;10.00;99.90;;;;;;4936735;29;20426;-73
2022/09/26 04:07:04;;;;;;;7.40;5.20;;;9.90;99.90;;;;;;4935710;29;20209;-74
2022/09/26 04:09:30;;;;;;;5.80;5.20;;;9.90;99.90;;;;;;4936780;29;20580;-73
2022/09/26 04:11:55;;;;;;;9.60;5.07;;;9.90;99.90;;;;;;4936855;29;20471;-74
2022/09/26 04:14:21;;;;;;;8.70;5.90;;;9.80;99.90;;;;;;4919798;29;20215;-73
2022/09/26 04:16:47;;;;;;;8.33;6.20;;;9.90;99.90;;;;;;4936908;29;20201;-73
2022/09/26 04:19:13;;;;;;;8.63;6.40;;;10.00;99.90;;;;;;4936565;29;20229;-74
2022/09/26 04:21:40;;;;;;;7.50;6.00;;;9.90;99.90;;;;;;4936605;29;20241;-74
2022/09/26 04:24:12;;;;;;;5.97;5.40;;;9.90;99.90;;;;;;4936479;29;20452;-74
2022/09/26 04:26:39;;;;;;;7.90;7.10;;;9.90;99.90;;;;;;4916074;29;20308;-73
2022/09/26 04:29:05;;;;;;;8.70;7.35;;;9.90;99.90;;;;;;4917971;29;20514;-74
2022/09/26 04:31:33;;;;;;;10.50;7.30;;;9.80;99.90;;;;;;4916184;29;20224;-74
2022/09/26 04:33:59;;;;;;;10.95;6.80;;;9.80;99.90;;;;;;4917344;29;20555;-73
2022/09/26 04:36:24;;;;;;;7.33;6.63;;;9.80;99.90;;;;;;4916361;29;20202;-73
2022/09/26 04:38:50;;;;;;;9.23;6.53;;;9.90;99.90;;;;;;4916468;29;20880;-73
2022/09/26 04:41:19;;;;;;;8.07;6.28;;;9.90;99.90;;;;;;4916455;29;20182;-73
2022/09/26 04:43:45;;;;;;;7.63;6.60;;;10.00;99.90;;;;;;4917328;29;20186;-73
2022/09/26 04:46:15;;;;;;;10.30;6.70;;;10.00;99.90;;;;;;4917095;29;20236;-73
2022/09/26 04:48:41;;;;;;;10.52;6.57;;;10.00;99.90;;;;;;4926536;29;20440;-73
2022/09/26 04:51:08;;;;;;;8.70;6.22;;;9.90;99.90;;;;;;4936244;29;20209;-74
2022/09/26 04:53:36;;;;;;;12.48;7.75;;;9.90;99.90;;;;;;4936150;29;20176;-73
2022/09/26 04:56:01;;;;;;;9.27;6.45;;;9.80;99.90;;;;;;4935015;29;20282;-73
2022/09/26 04:58:28;;;;;;;13.37;7.80;;;9.80;99.90;;;;;;4919287;29;20211;-74
2022/09/26 05:00:54;;;;;;;10.48;6.63;;;9.80;99.90;;;;;;4919117;29;20650;-74
2022/09/26 05:03:19;;;;;;;16.70;7.70;;;9.90;99.90;;;;;;4936133;29;20272;-73
2022/09/26 05:05:49;;;;;;;11.57;6.53;;;9.80;99.90;;;;;;4934409;29;20200;-74
2022/09/26 05:08:15;;;;;;;11.95;6.45;;;9.90;99.90;;;;;;4935916;29;20182;-74
2022/09/26 05:10:42;;;;;;;11.43;7.15;;;9.80;99.90;;;;;;4935903;29;20265;-73
2022/09/26 05:13:08;;;;;;;6.97;6.10;;;9.90;99.90;;;;;;4934797;29;20213;-74
2022/09/26 05:15:41;;;;;;;8.55;5.88;;;9.80;99.90;;;;;;4935778;29;20601;-73
2022/09/26 05:18:10;;;;;;;8.10;6.00;;;9.70;99.90;;;;;;4935834;29;20186;-74
2022/09/26 05:20:38;;;;;;;9.80;6.47;;;9.70;99.90;;;;;;4935888;29;20409;-74
2022/09/26 05:23:06;;;;;;;7.85;6.60;;;9.70;99.90;;;;;;4935875;29;20213;-74
2022/09/26 05:28:22;;;;;;;7.45;5.93;;;9.90;99.90;;;;;;4936331;29;20196;-74
2022/09/26 05:30:50;;;;;;;8.38;5.53;;;9.90;99.90;;;;;;4918869;29;20177;-73
2022/09/26 05:33:16;;;;;;;7.20;5.45;;;9.80;99.90;;;;;;4935768;29;20181;-74
2022/09/26 05:35:42;;;;;;;9.98;5.53;;;9.80;99.90;;;;;;4942353;29;20173;-74
2022/09/26 05:38:07;;;;;;;7.63;5.07;;;9.80;99.90;;;;;;4953542;29;20184;-74
2022/09/26 05:43:17;;;;;;;6.53;5.43;;;10.00;99.90;;;;;;4955066;29;20236;-73
2022/09/26 05:45:43;;;;;;;6.73;4.53;;;10.10;99.90;;;;;;4954116;29;20428;-73
2022/09/26 05:48:08;;;;;;;8.43;5.10;;;10.10;99.90;;;;;;4954613;29;20196;-74
2022/09/26 05:50:34;;;;;;;7.30;6.20;;;10.20;99.90;;;;;;4954952;29;20784;-74
2022/09/26 05:53:01;;;;;;;9.03;6.70;;;10.20;99.90;;;;;;4953696;29;20185;-73
2022/09/26 05:55:28;;;;;;;9.60;7.27;;;10.30;99.90;;;;;;4937125;29;20420;-74
2022/09/26 05:57:57;;;;;;;7.30;6.00;;;10.20;99.90;;;;;;4954528;29;20451;-74
2022/09/26 06:00:26;;;;;;;10.25;6.38;;;10.20;99.90;;;;;;4954576;29;20504;-73
2022/09/26 06:02:55;;;;;;;7.23;6.40;;;10.30;99.90;;;;;;4954734;29;20185;-74
2022/09/26 06:05:23;;;;;;;7.77;5.67;;;10.20;99.90;;;;;;4954444;29;20555;-73
2022/09/26 06:07:48;;;;;;;8.85;6.22;;;10.20;99.90;;;;;;4954662;29;20463;-74
2022/09/26 06:10:14;;;;;;;11.57;6.00;;;10.30;99.90;;;;;;4954587;29;20185;-74
2022/09/26 06:12:40;;;;;;;6.37;5.40;;;10.30;99.90;;;;;;4953231;29;20286;-73
2022/09/26 06:15:08;;;;;;;7.03;6.10;;;10.40;99.90;;;;;;4954477;29;20189;-74
2022/09/26 06:17:33;;;;;;;6.13;5.30;;;10.50;99.90;;;;;;4956241;28;20193;-73
2022/09/26 06:19:59;;;;;;;6.00;5.40;;;10.60;99.90;;;;;;4958155;29;20187;-74
2022/09/26 06:22:25;;;;;;;6.20;5.30;;;10.70;99.90;;;;;;4958055;29;20185;-73
2022/09/26 06:24:51;;;;;;;5.13;4.30;;;10.70;99.90;;;;;;4957866;29;20181;-74
2022/09/26 06:27:17;;;;;;;3.33;3.00;;;10.80;99.90;;;;;;4957937;29;20204;-74
2022/09/26 06:29:42;;;;;;;5.90;3.87;;;10.80;99.90;;;;;;4957952;29;20177;-74
2022/09/26 06:32:08;;;;;;;3.33;2.93;;;10.90;99.90;;;;;;4956846;29;20211;-73
2022/09/26 06:34:33;;;;;;;6.23;3.20;;;10.80;99.90;;;;;;4957564;29;20263;-74
2022/09/26 06:36:59;;;;;;;5.73;3.23;;;10.90;99.90;;;;;;4957891;29;20201;-73
2022/09/26 06:39:32;;;;;;;5.83;3.70;;;11.00;99.90;;;;;;4940869;29;20653;-73
2022/09/26 06:41:58;;;;;;;6.43;3.03;;;11.10;99.90;;;;;;4956819;29;20204;-73
2022/09/26 06:44:24;;;;;;;4.37;2.87;;;11.10;99.90;;;;;;4957414;29;20467;-73
2022/09/26 06:46:49;;;;;;;4.93;3.20;;;11.20;99.90;;;;;;4956272;29;20216;-73
2022/09/26 06:49:15;;;;;;;14.73;3.23;;;11.30;99.90;;;;;;4957626;29;20212;-73
2022/09/26 06:51:41;;;;;;;8.10;2.53;;;11.30;99.90;;;;;;4957750;29;20205;-73
2022/09/26 06:54:07;;;;;;;4.20;2.73;;;11.30;99.90;;;;;;4957223;29;20559;-74
2022/09/26 06:56:32;;;;;;;2.77;2.17;;;11.40;99.90;;;;;;4940234;29;20448;-74
2022/09/26 06:58:58;;;;;;;10.10;3.17;;;11.40;99.90;;;;;;4956130;29;20305;-74
2022/09/26 07:01:23;;;;;;;3.40;2.33;;;11.60;99.90;;;;;;4957348;29;20664;-74
2022/09/26 07:03:49;;;;;;;3.23;2.27;;;11.70;99.90;;;;;;4957090;29;20676;-74
2022/09/26 07:06:16;;;;;;;4.80;2.30;;;11.80;99.90;;;;;;4957294;29;20212;-73
2022/09/26 07:08:42;;;;;;;6.70;2.80;;;11.80;99.90;;;;;;4957197;29;20177;-74
2022/09/26 07:11:08;;;;;;;4.23;2.27;;;11.90;99.90;;;;;;4957012;29;20957;-74
2022/09/26 07:13:35;;;;;;;3.93;2.40;;;12.00;99.90;;;;;;4957119;29;20423;-74
2022/09/26 07:16:00;;;;;;;4.60;1.80;;;12.00;99.90;;;;;;4956686;29;20211;-73
2022/09/26 07:18:27;;;;;;;5.23;2.03;;;11.90;99.90;;;;;;4955813;29;20420;-73
2022/09/26 07:20:52;;;;;;;4.50;2.33;;;11.90;99.90;;;;;;4956935;29;20184;-74
2022/09/26 07:23:19;;;;;;;3.57;2.00;;;12.10;99.90;;;;;;4957035;29;20409;-73
2022/09/26 07:25:46;;;;;;;5.60;2.63;;;12.00;99.90;;;;;;4955425;29;20185;-73
2022/09/26 07:28:12;;;;;;;4.50;2.60;;;12.00;99.90;;;;;;4956979;28;20767;-73
2022/09/26 07:30:38;;;;;;;5.63;2.57;;;11.90;99.90;;;;;;4956804;29;20475;-73
2022/09/26 07:33:07;;;;;;;5.87;2.87;;;11.90;99.90;;;;;;4956828;29;20416;-74
2022/09/26 07:35:34;;;;;;;4.93;2.20;;;11.90;99.90;;;;;;4956460;29;20178;-73
2022/09/26 07:38:00;;;;;;;2.80;2.30;;;11.90;99.90;;;;;;4956875;29;20433;-73
2022/09/26 07:40:26;;;;;;;6.57;2.30;;;11.90;99.90;;;;;;4956696;29;20423;-73
2022/09/26 07:42:52;;;;;;;2.13;1.93;;;11.90;99.90;;;;;;4956673;29;20420;-73
2022/09/26 07:50:10;;;;;;;5.33;2.07;;;11.90;99.90;;;;;;4956194;29;20556;-73
2022/09/26 07:50:57;;;;;;;2.30;1.97;;;11.80;99.90;;;;;;4956648;29;20451;-74
2022/09/26 07:53:26;;;;;;;3.13;1.20;;;11.80;99.90;;;;;;4956546;29;20412;-73
2022/09/26 07:56:05;;;;;;;3.50;1.40;;;11.70;99.90;;;;;;4956157;29;20421;-73
2022/09/26 07:58:37;;;;;;;4.77;1.30;;;11.70;99.90;;;;;;4956365;29;20464;-73
2022/09/26 08:01:05;;;;;;;3.93;1.37;;;11.70;99.90;;;;;;4955163;29;20436;-73
2022/09/26 08:03:30;;;;;;;2.83;1.33;;;11.60;99.90;;;;;;4956202;29;20456;-73
2022/09/26 08:05:59;;;;;;;1.73;1.10;;;11.70;99.90;;;;;;4954658;29;20439;-73
2022/09/26 08:08:25;;;;;;;2.97;1.30;;;11.70;99.90;;;;;;4956183;29;20181;-73
2022/09/26 08:10:50;;;;;;;4.10;1.80;;;11.70;99.90;;;;;;4954799;29;20959;-74
2022/09/26 08:13:16;;;;;;;5.57;1.23;;;11.70;99.90;;;;;;4956062;29;20555;-73
2022/09/26 08:15:41;;;;;;;2.83;1.30;;;11.60;99.90;;;;;;4954464;29;20287;-73
2022/09/26 08:18:07;;;;;;;2.93;0.97;;;11.50;99.90;;;;;;4956076;29;20208;-73
2022/09/26 08:20:33;;;;;;;4.00;1.57;;;11.40;99.90;;;;;;4955117;29;20231;-73
2022/09/26 08:22:59;;;;;;;1.50;1.13;;;11.40;99.90;;;;;;4954854;29;20216;-73
2022/09/26 08:25:24;;;;;;;2.20;1.50;;;11.30;99.90;;;;;;4955431;29;20539;-73
2022/09/26 08:27:51;;;;;;;1.37;1.27;;;11.30;99.90;;;;;;4955898;29;20451;-73
2022/09/26 08:30:17;;;;;;;2.80;1.70;;;11.40;99.90;;;;;;4955859;29;20632;-73
2022/09/26 08:32:52;;;;;;;3.60;1.50;;;11.30;99.90;;;;;;4955775;29;20472;-73
2022/09/26 08:35:18;;;;;;;3.13;1.57;;;11.40;99.90;;;;;;4955411;29;20809;-74
2022/09/26 08:37:43;;;;;;;4.70;1.70;;;11.30;99.90;;;;;;4955527;29;20531;-73
2022/09/26 08:40:09;;;;;;;8.03;1.63;;;11.30;99.90;;;;;;4954194;28;20192;-73
2022/09/26 08:43:18;;;;;;;4.10;1.97;;;11.30;99.90;;;;;;4954620;29;20568;-73
2022/09/26 08:48:49;;;;;;;4.50;1.85;;;11.40;99.90;;;;;;4955484;29;20192;-73
2022/09/26 08:51:28;;;;;;;3.43;1.47;;;11.40;99.90;;;;;;4955540;29;20204;-73
2022/09/26 08:54:10;;;;;;;3.13;1.40;;;11.40;99.90;;;;;;4955213;29;20409;-73
2022/09/26 08:56:40;;;;;;;2.10;1.33;;;11.50;99.90;;;;;;4955372;29;20468;-73
2022/09/26 08:59:13;;;;;;;6.10;2.03;;;11.50;99.90;;;;;;4955419;29;20415;-73
2022/09/26 09:01:42;;;;;;;3.60;1.33;;;11.50;99.90;;;;;;4955254;29;20424;-73
2022/09/26 09:04:20;;;;;;;2.37;1.77;;;11.50;99.90;;;;;;4955037;29;20459;-73
2022/09/26 09:06:46;;;;;;;3.53;1.50;;;11.60;99.90;;;;;;4955384;29;20447;-72
2022/09/26 09:09:15;;;;;;;7.13;2.47;;;11.60;99.90;;;;;;4955174;29;20485;-73
2022/09/26 09:11:50;;;;;;;3.00;1.63;;;11.60;99.90;;;;;;4937813;29;20464;-74
2022/09/26 09:14:21;;;;;;;2.73;1.57;;;11.70;99.90;;;;;;4954904;29;20504;-73
2022/09/26 09:16:56;;;;;;;2.23;1.50;;;11.80;99.90;;;;;;4955138;29;20443;-73
2022/09/26 09:19:53;;;;;;;2.70;1.43;;;11.70;99.90;;;;;;4955154;29;20414;-73
2022/09/26 09:22:49;;;;;;;1.67;1.20;;;11.80;99.90;;;;;;4955255;29;20532;-73
2022/09/26 09:25:21;;;;;;;6.30;1.17;;;11.80;99.90;;;;;;4954893;29;20416;-75
2022/09/26 09:28:09;;;;;;;2.20;1.47;;;11.80;99.90;;;;;;4955116;29;20278;-74
2022/09/26 09:31:04;;;;;;;2.83;1.80;;;11.80;99.90;;;;;;4955373;29;20936;-73
2022/09/26 09:33:32;;;;;;;2.63;1.57;;;11.90;99.90;;;;;;4955109;29;20429;-74
2022/09/26 09:36:13;;;;;;;2.40;1.60;;;11.80;99.90;;;;;;4954572;29;20446;-73
2022/09/26 09:38:43;;;;;;;2.30;1.60;;;11.80;99.90;;;;;;4954987;29;20495;-74
2022/09/26 09:41:22;;;;;;;4.47;1.30;;;11.70;99.90;;;;;;4954945;29;20452;-73
2022/09/26 09:43:58;;;;;;;2.13;1.67;;;11.70;99.90;;;;;;4953352;29;20844;-74
2022/09/26 09:46:28;;;;;;;3.27;1.70;;;11.70;99.90;;;;;;4954738;29;20439;-73
2022/09/26 09:49:09;;;;;;;3.73;1.43;;;11.60;99.90;;;;;;4954809;28;20564;-73
2022/09/26 09:51:38;;;;;;;2.23;1.50;;;11.70;99.90;;;;;;4954985;28;21000;-73
2022/09/26 09:54:33;;;;;;;3.63;1.43;;;11.70;99.90;;;;;;4958285;29;20405;-73
2022/09/26 09:57:07;;;;;;;3.10;1.70;;;11.70;99.90;;;;;;4957424;29;20452;-73
2022/09/26 09:59:54;;;;;;;2.97;1.83;;;11.80;99.90;;;;;;4958442;29;20409;-73
2022/09/26 10:02:36;;;;;;;2.03;1.73;;;11.80;99.90;;;;;;4958346;29;20416;-73
2022/09/26 10:05:29;;;;;;;2.97;1.60;;;11.80;99.90;;;;;;4958129;29;20411;-73
2022/09/26 10:07:57;;;;;;;5.50;1.73;;;11.70;99.90;;;;;;4958272;29;20436;-73
2022/09/26 10:11:01;;;;;;;2.20;1.63;;;11.70;99.90;;;;;;4958193;29;20475;-73
2022/09/26 10:13:30;;;;;;;3.07;1.63;;;11.70;99.90;;;;;;4958238;29;20798;-73
2022/09/26 10:16:05;;;;;;;1.60;1.50;;;11.70;99.90;;;;;;4957865;29;20420;-74
2022/09/26 10:18:32;;;;;;;2.20;1.53;;;11.70;99.90;;;;;;4958184;29;20896;-73
2022/09/26 10:21:07;;;;;;;2.40;2.10;;;11.70;99.90;;;;;;4958130;29;20805;-73
2022/09/26 10:23:38;;;;;;;3.00;1.47;;;11.60;99.90;;;;;;4958249;29;20439;-73
2022/09/26 10:26:09;;;;;;;3.50;1.60;;;11.70;99.90;;;;;;4957883;29;20940;-73
2022/09/26 10:28:46;;;;;;;1.83;1.60;;;11.70;99.90;;;;;;4958058;29;20909;-73
2022/09/26 10:31:22;;;;;;;2.33;1.30;;;11.60;99.90;;;;;;4957950;29;20464;-73
2022/09/26 10:33:58;;;;;;;4.57;1.80;;;11.70;99.90;;;;;;4957710;29;20409;-74
2022/09/26 10:36:51;;;;;;;2.63;1.87;;;11.80;99.90;;;;;;4956548;28;20442;-73
2022/09/26 10:42:19;;;;;;;2.17;1.87;;;11.90;99.90;;;;;;4965496;28;20412;-73
2022/09/26 10:44:46;;;;;;;5.57;1.60;;;12.00;99.90;;;;;;4957576;29;20412;-73
2022/09/26 10:47:17;;;;;;;3.13;1.90;;;12.00;99.90;;;;;;4957620;29;20456;-73
2022/09/26 10:49:56;;;;;;;6.43;1.80;;;12.10;99.90;;;;;;4957637;29;20487;-73
2022/09/26 10:52:23;;;;;;;7.03;2.53;;;12.20;99.90;;;;;;4957504;29;20503;-74
2022/09/26 10:54:59;;;;;;;1.53;1.43;;;12.20;99.90;;;;;;4957192;29;20925;-74
2022/09/26 10:57:32;;;;;;;3.10;1.60;;;12.30;99.90;;;;;;4957473;29;20770;-74
2022/09/26 10:59:59;;;;;;;2.63;1.87;;;12.40;99.90;;;;;;4957673;29;20903;-73
2022/09/26 11:02:27;;;;;;;1.50;1.40;;;12.60;99.90;;;;;;4956826;28;20515;-73
2022/09/26 11:07:46;;;;;;;1.97;1.40;;;12.80;99.90;;;;;;4957451;29;21073;-74
2022/09/26 11:10:17;;;;;;;3.30;1.53;;;12.90;99.90;;;;;;4957129;29;20416;-73
2022/09/26 11:12:56;;;;;;;4.87;1.83;;;12.90;99.90;;;;;;4957001;29;20821;-74
2022/09/26 11:15:22;;;;;;;3.83;1.30;;;13.00;99.90;;;;;;4957086;29;20419;-73
2022/09/26 11:17:54;;;;;;;3.73;1.27;;;13.10;99.90;;;;;;4957262;29;20428;-74
2022/09/26 11:20:37;;;;;;;1.70;1.00;;;13.10;99.90;;;;;;4957191;29;20412;-74
2022/09/26 11:23:44;;;;;;;4.13;1.60;;;13.30;99.90;;;;;;4956944;29;20951;-73
2022/09/26 11:26:34;;;;;;;1.50;1.40;;;13.40;99.90;;;;;;4956855;29;20804;-73
2022/09/26 11:29:35;;;;;;;3.10;1.20;;;13.50;99.90;;;;;;4956937;29;20412;-73
2022/09/26 11:32:01;;;;;;;2.40;1.30;;;13.50;99.90;;;;;;4939596;29;21115;-72
2022/09/26 11:34:30;;;;;;;3.40;1.20;;;13.50;99.90;;;;;;4956546;29;20499;-74
2022/09/26 11:37:30;;;;;;;1.20;1.10;;;13.50;99.90;;;;;;4956590;29;20200;-73
2022/09/26 11:40:09;;;;;;;1.50;1.20;;;13.50;99.90;;;;;;4956871;29;20901;-73
2022/09/26 11:42:54;;;;;;;2.10;1.00;;;13.60;99.90;;;;;;4939731;29;20408;-73
2022/09/26 11:45:51;;;;;;;1.23;1.00;;;13.60;99.90;;;;;;4956257;29;20761;-74
2022/09/26 11:48:25;;;;;;;1.13;1.03;;;13.50;99.90;;;;;;4938675;28;20435;-73
2022/09/26 11:51:14;;;;;;;2.90;1.40;;;13.60;99.90;;;;;;4956276;29;20411;-74
2022/09/26 11:54:14;;;;;;;2.27;1.07;;;13.70;99.90;;;;;;4956666;29;20488;-74
2022/09/26 11:56:55;;;;;;;4.93;1.20;;;13.70;99.90;;;;;;4956307;29;20430;-73
2022/09/26 11:59:45;;;;;;;4.90;1.13;;;13.80;99.90;;;;;;4956372;29;20446;-74
2022/09/26 12:02:32;;;;;;;2.73;1.00;;;13.80;99.90;;;;;;4956431;29;20405;-73
2022/09/26 12:05:26;;;;;;;1.90;0.97;;;14.00;99.90;;;;;;4955934;29;20443;-72
2022/09/26 12:07:55;;;;;;;2.80;1.57;;;14.10;99.90;;;;;;4956103;29;20508;-74
2022/09/26 12:10:30;;;;;;;1.37;1.23;;;14.00;99.90;;;;;;4956098;29;20517;-74
2022/09/26 12:13:39;;;;;;;1.13;0.93;;;14.00;99.90;;;;;;4954739;29;20591;-73
2022/09/26 12:16:20;;;;;;;2.70;0.90;;;14.10;99.90;;;;;;4946399;29;21017;-73
2022/09/26 12:19:06;;;;;;;1.37;1.00;;;14.10;99.90;;;;;;4955901;29;20780;-74
2022/09/26 12:25:10;;;;;;;1.93;0.90;;;14.10;99.90;;;;;;4955866;29;20772;-73
2022/09/26 12:28:24;;;;;;;2.03;1.03;;;14.10;99.90;;;;;;4954673;28;20433;-73
2022/09/26 12:31:12;;;;;;;1.97;1.30;;;14.10;99.90;;;;;;4925530;29;20560;-73
2022/09/26 12:34:22;;;;;;;3.30;1.30;;;14.10;99.90;;;;;;4955885;29;20444;-74
2022/09/26 12:36:53;;;;;;;1.40;1.00;;;14.20;99.90;;;;;;4933520;29;20486;-74
2022/09/26 12:39:23;;;;;;;2.63;1.10;;;14.30;99.90;;;;;;4954370;29;20926;-74
2022/09/26 12:42:25;;;;;;;4.70;1.50;;;14.20;99.90;;;;;;4955712;29;20417;-74
2022/09/26 12:45:16;;;;;;;3.13;1.30;;;14.10;99.90;;;;;;4948595;29;20766;-73
2022/09/26 12:48:03;;;;;;;3.30;1.20;;;14.00;99.90;;;;;;4955500;28;20415;-73
2022/09/26 12:50:39;;;;;;;4.20;1.23;;;13.70;99.90;;;;;;4955708;29;20792;-73
2022/09/26 12:53:38;;;;;;;6.03;1.30;;;13.40;99.90;;;;;;4938211;29;20468;-73
2022/09/26 12:56:08;;;;;;;5.03;1.53;;;13.10;99.90;;;;;;4955110;29;20996;-73
2022/09/26 12:59:01;;;;;;;3.23;1.40;;;12.90;99.90;;;;;;4955429;29;20409;-73
2022/09/26 13:02:05;;;;;;;1.90;1.20;;;12.70;99.90;;;;;;4955347;29;20413;-73
2022/09/26 13:05:17;;;;;;;3.33;1.33;;;12.50;99.90;;;;;;4955092;29;20412;-73
2022/09/26 13:07:50;;;;;;;3.30;1.50;;;12.50;99.90;;;;;;4955113;29;20471;-73
2022/09/26 13:10:18;;;;;;;3.47;1.90;;;12.50;99.90;;;;;;4953924;29;20788;-73
2022/09/26 13:13:23;;;;;;;4.87;1.93;;;12.50;99.90;;;;;;4955076;29;20506;-73
2022/09/26 13:16:15;;;;;;;4.00;1.90;;;12.50;99.90;;;;;;4954914;29;20420;-73
2022/09/26 13:18:45;;;;;;;2.73;1.77;;;12.40;99.90;;;;;;4955217;29;20495;-73
2022/09/26 13:21:28;;;;;;;3.30;1.97;;;12.50;99.90;;;;;;4955140;29;20422;-72
2022/09/26 13:23:59;;;;;;;4.20;1.70;;;12.50;99.90;;;;;;4954942;29;20416;-73
2022/09/26 13:26:34;;;;;;;8.13;1.60;;;12.50;99.90;;;;;;4956595;28;20465;-73
2022/09/26 13:29:36;;;;;;;3.50;1.40;;;12.40;99.90;;;;;;4959159;29;20416;-73
2022/09/26 13:32:46;;;;;;;2.70;2.13;;;12.40;99.90;;;;;;4957574;29;20803;-73
2022/09/26 13:35:19;;;;;;;2.67;1.57;;;12.40;99.90;;;;;;4918185;29;20424;-73
2022/09/26 13:37:48;;;;;;;3.87;2.00;;;12.40;99.90;;;;;;4955020;29;20957;-74
2022/09/26 13:40:38;;;;;;;3.50;2.30;;;12.30;99.90;;;;;;4958984;29;20437;-73
2022/09/26 13:43:28;;;;;;;7.40;2.20;;;12.30;99.90;;;;;;4959095;29;20927;-73
2022/09/26 13:46:24;;;;;;;2.93;1.70;;;12.30;99.90;;;;;;4958229;29;20417;-73
2022/09/26 13:49:31;;;;;;;1.70;1.60;;;12.30;99.90;;;;;;4941624;29;20968;-73